Latest Weather Observations for Coolangatta

IDN60801

Issued at 1:33 pm EST Wednesday 29 June 2016 (issued every 30 minutes, with the page automatically refreshed every 10 minutes)

About weather observations | Map of weather stations | Latest weather observations for NSW | Other Formats
Station Details ID: 040717 Name: COOLANGATTA Lat: -28.17 Lon: 153.51 Height: 4.0 m
Data from the previous 72 hours. | See also: Recent months at Coolangatta
Date/Time
EST
Temp
°C
App
Temp
°C
Dew
Point
°C
Rel
Hum
%
Delta-T
°C
Wind Press
QNH
hPa
Press
MSL
hPa
Rain since
9am
mm
Dir  Spd
km/h
Gust
km/h
Spd
kts
Gust
kts
29/01:30pm 19.6 16.1 8.6 49 5.7 SSW 17 28 9 15 1023.5 1023.5 0.0
29/01:00pm 20.0 16.3 9.6 51 5.5 S 19 30 10 16 1023.7 1023.7 0.0
29/12:30pm 19.6 15.6 8.9 50 5.6 SSW 20 28 11 15 1024.2 1024.2 0.0
29/12:00pm 19.4 15.6 9.0 51 5.4 SSW 19 28 10 15 1024.7 1024.7 0.0
29/11:30am 18.9 14.9 8.3 50 5.5 S 19 30 10 16 1025.1 1025.1 0.0
29/11:27am 19.0 15.1 8.6 51 5.4 SSW 19 30 10 16 1025.2 1025.2 0.0
29/11:08am 18.7 14.2 8.4 51 5.3 S 22 33 12 18 1025.2 1025.2 0.0
29/11:00am 18.3 13.3 8.0 51 5.2 S 24 33 13 18 1025.3 1025.3 0.0
29/10:30am 18.4 14.8 8.4 52 5.2 SSW 17 26 9 14 1025.8 1025.8 0.0
29/10:00am 17.4 12.6 7.5 52 5.0 SSW 22 35 12 19 1025.8 1025.8 0.0
29/09:30am 16.9 12.0 7.0 52 4.9 SSW 22 37 12 20 1025.9 1025.9 0.0
29/09:00am 16.4 11.8 6.5 52 4.8 SSW 20 32 11 17 1025.8 1025.8 0.0
29/08:30am 15.8 11.2 6.3 53 4.6 SSW 20 30 11 16 1025.7 1025.7 0.0
29/08:00am 15.1 10.5 5.6 53 4.5 SSW 19 26 10 14 1025.4 1025.4 0.0
29/07:30am 14.4 9.7 5.2 54 4.3 SSW 19 28 10 15 1025.2 1025.2 0.0
29/07:00am 13.7 8.9 4.8 55 4.1 SSW 19 24 10 13 1025.1 1025.1 0.0
29/06:30am 13.7 8.7 4.8 55 4.1 SSW 20 32 11 17 1024.9 1024.9 0.0
29/06:00am 13.9 9.0 5.0 55 4.1 SSW 20 28 11 15 1024.6 1024.6 0.0
29/05:30am 13.9 9.0 5.3 56 4.0 SSW 20 30 11 16 1024.3 1024.3 0.0
29/05:00am 14.1 8.9 5.5 56 4.0 SSW 22 32 12 17 1023.9 1023.9 0.0
29/04:30am 14.3 9.1 5.7 56 4.1 SSW 22 30 12 16 1023.7 1023.7 0.0
29/04:00am 13.9 9.8 6.0 59 3.7 SSW 17 22 9 12 1023.7 1023.7 0.0
29/03:30am 10.4 7.6 6.9 79 1.7 SW 11 13 6 7 1023.6 1023.6 0.0
29/03:00am 11.7 8.7 6.0 68 2.7 WSW 11 13 6 7 1023.6 1023.6 0.0
29/02:30am 13.5 10.1 5.7 59 3.7 SSW 13 19 7 10 1023.5 1023.5 0.0
29/02:00am 13.9 9.8 6.0 59 3.7 SSW 17 22 9 12 1023.6 1023.6 0.0
29/01:30am 14.2 10.1 6.1 58 3.9 SSW 17 24 9 13 1023.6 1023.6 0.0
29/01:00am 13.4 9.7 6.3 62 3.4 SSW 15 19 8 10 1023.7 1023.7 0.0
29/12:30am 13.1 10.0 7.3 68 2.8 SW 13 20 7 11 1023.6 1023.6 0.0
29/12:29am 13.1 10.0 7.3 68 2.8 SW 13 20 7 11 1023.6 1023.6 0.0
29/12:00am 8.0 5.7 5.8 86 1.0 SW 7 9 4 5 1023.9 1023.9 0.0
 
Date/Time
EST
Temp
°C
App
Temp
°C
Dew
Point
°C
Rel
Hum
%
Delta-T
°C
Wind Press
QNH
hPa
Press
MSL
hPa
Rain since
9am
mm
Dir  Spd
km/h
Gust
km/h
Spd
kts
Gust
kts
28/11:30pm 9.9 8.4 7.0 82 1.4 SSE 4 9 2 5 1024.0 1024.0 0.0
28/11:00pm 10.2 7.9 7.4 83 1.3 SSW 9 11 5 6 1023.7 1023.7 0.0
28/10:30pm 9.1 7.3 7.9 92 0.6 SSW 7 9 4 5 1023.7 1023.7 0.0
28/10:00pm 8.8 6.9 7.4 91 0.7 SW 7 9 4 5 1023.7 1023.7 0.0
28/09:30pm 9.4 8.4 7.3 87 1.0 SSW 2 6 1 3 1023.6 1023.6 0.0
28/09:00pm 10.0 6.9 7.4 84 1.2 WSW 13 17 7 9 1023.3 1023.3 0.0
28/08:30pm 9.9 6.9 7.7 86 1.1 WSW 13 15 7 8 1023.3 1023.3 0.0
28/08:00pm 10.4 8.7 7.6 83 1.3 SW 6 7 3 4 1023.2 1023.2 0.0
28/07:30pm 10.7 7.7 7.8 82 1.4 WSW 13 15 7 8 1023.0 1023.0 0.0
28/07:00pm 10.8 9.0 8.0 83 1.4 WSW 7 9 4 5 1022.6 1022.6 0.0
28/06:30pm 11.0 9.2 7.3 78 1.8 WSW 6 7 3 4 1022.1 1022.1 0.0
28/06:00pm 11.4 10.3 6.7 73 2.2 W 2 7 1 4 1021.4 1021.4 0.0
28/05:30pm 13.8 13.2 7.3 65 3.2 CALM 0 0 0 0 1020.9 1020.9 0.0
28/05:00pm 16.2 13.9 5.8 50 5.0 SSW 7 9 4 5 1020.6 1020.6 0.0
28/04:30pm 17.5 14.5 5.8 46 5.7 SSW 11 15 6 8 1020.1 1020.1 0.0
28/04:00pm 18.4 14.9 5.6 43 6.2 SSW 13 20 7 11 1019.7 1019.7 0.0
28/03:30pm 18.9 15.5 5.7 42 6.5 SSW 13 20 7 11 1019.6 1019.6 0.0
28/03:00pm 19.1 15.6 5.6 41 6.6 SSW 13 20 7 11 1019.3 1019.3 0.0
28/02:30pm 19.2 15.8 6.0 42 6.5 SSW 13 20 7 11 1018.9 1018.9 0.0
28/02:00pm 19.3 15.5 5.7 41 6.7 SW 15 30 8 16 1018.7 1018.7 0.0
28/01:30pm 19.0 14.8 5.5 41 6.6 S 17 26 9 14 1018.4 1018.4 0.0
28/01:00pm 18.3 13.4 5.2 42 6.3 SSW 20 32 11 17 1018.5 1018.5 0.0
28/12:30pm 18.3 13.5 4.5 40 6.6 SSW 19 30 10 16 1018.7 1018.7 0.0
28/12:00pm 18.0 13.4 5.6 44 6.0 SSW 19 35 10 19 1018.9 1018.9 0.0
28/11:30am 17.5 12.7 4.8 43 6.1 SW 19 28 10 15 1019.1 1019.1 0.0
28/11:00am 17.4 12.1 5.0 44 5.9 SW 22 33 12 18 1019.3 1019.3 0.0
28/10:30am 16.6 12.2 4.6 45 5.7 SW 17 26 9 14 1019.5 1019.5 0.0
28/10:00am 15.1 12.1 3.9 47 5.1 W 9 15 5 8 1019.6 1019.6 0.0
28/09:30am 13.9 10.9 3.9 51 4.5 NNW 9 11 5 6 1019.7 1019.7 0.0
28/09:00am 13.2 11.5 3.8 53 4.2 NW 2 6 1 3 1019.5 1019.5 0.0
28/08:30am 10.7 8.2 4.6 66 2.7 WNW 7 9 4 5 1019.4 1019.4 0.0
28/08:00am 7.9 5.1 5.2 83 1.2 W 9 11 5 6 1019.3 1019.3 0.0
28/07:30am 6.1 3.8 4.9 92 0.5 SW 6 7 3 4 1019.3 1019.3 0.0
28/07:00am 4.2 2.4 3.2 93 0.4 W 2 7 1 4 1019.1 1019.1 0.0
28/06:30am 5.0 3.0 4.3 95 0.3 SW 4 7 2 4 1018.7 1018.7 0.0
28/06:00am 4.3 1.2 3.6 95 0.3 W 9 11 5 6 1018.5 1018.5 0.0
28/05:30am 3.6 1.2 2.4 92 0.5 WSW 4 7 2 4 1018.3 1018.3 0.0
28/05:00am 4.2 1.4 3.0 92 0.5 W 7 11 4 6 1017.9 1017.9 0.0
28/04:30am 5.2 2.8 4.3 94 0.4 WSW 6 11 3 6 1017.5 1017.5 0.0
28/04:00am 5.1 2.5 4.4 95 0.3 W 7 11 4 6 1017.4 1017.4 0.0
28/03:30am 4.8 3.1 3.8 93 0.4 WSW 2 9 1 5 1017.3 1017.3 0.0
28/03:00am 4.8 2.3 3.6 92 0.5 W 6 7 3 4 1017.2 1017.2 0.0
28/02:30am 4.7 2.4 3.0 89 0.7 WSW 4 7 2 4 1017.2 1017.2 0.0
28/02:00am 6.0 4.7 4.3 89 0.7 CALM 0 4 0 2 1017.0 1017.0 0.0
28/01:30am 6.1 4.1 4.6 90 0.6 WSW 4 7 2 4 1016.9 1016.9 0.0
28/01:00am 6.0 3.4 4.3 89 0.7 WSW 7 9 4 5 1016.8 1016.8 0.0
28/12:30am 5.6 3.7 3.1 84 1.0 W 2 6 1 3 1016.9 1016.9 0.0
28/12:00am 6.6 3.8 2.9 77 1.5 W 7 11 4 6 1017.0 1017.0 0.0
 
Date/Time
EST
Temp
°C
App
Temp
°C
Dew
Point
°C
Rel
Hum
%
Delta-T
°C
Wind Press
QNH
hPa
Press
MSL
hPa
Rain since
9am
mm
Dir  Spd
km/h
Gust
km/h
Spd
kts
Gust
kts
27/11:30pm 8.0 5.2 3.1 71 2.1 WNW 7 11 4 6 1016.9 1016.9 0.0
27/11:00pm 6.9 3.8 3.7 80 1.4 WNW 9 13 5 7 1017.2 1017.2 0.0
27/10:30pm 8.5 6.0 3.9 73 2.0 WNW 6 9 3 5 1017.3 1017.3 0.0
27/10:00pm 8.5 5.9 3.4 70 2.2 WSW 6 9 3 5 1017.4 1017.4 0.0
27/09:30pm 9.9 6.7 3.2 63 2.9 S 9 13 5 7 1017.3 1017.3 0.0
27/09:00pm 11.6 9.0 3.4 57 3.6 S 6 9 3 5 1017.2 1017.2 0.0
27/08:30pm 12.2 8.8 3.9 57 3.7 SW 11 19 6 10 1017.0 1017.0 0.0
27/08:00pm 13.0 7.8 3.7 53 4.2 SW 20 30 11 16 1016.7 1016.7 0.0
27/07:30pm 13.2 8.0 3.6 52 4.3 SSW 20 32 11 17 1016.1 1016.1 0.0
27/07:00pm 13.4 9.4 5.1 57 3.9 SW 15 22 8 12 1015.7 1015.7 0.0
27/06:30pm 14.1 10.7 5.7 57 4.0 SW 13 19 7 10 1015.2 1015.2 0.0
27/06:00pm 14.7 12.7 7.3 61 3.6 WSW 7 15 4 8 1014.7 1014.7 0.0
27/05:30pm 15.5 11.1 7.3 58 4.1 WNW 20 30 11 16 1013.8 1013.8 0.0
27/05:00pm 16.2 12.4 7.7 57 4.3 WNW 17 24 9 13 1013.4 1013.4 0.0
27/04:30pm 17.5 12.7 7.5 52 5.0 WNW 22 30 12 16 1012.9 1012.9 0.0
27/04:00pm 18.3 14.0 7.7 50 5.4 WNW 20 28 11 15 1012.6 1012.6 0.0
27/03:30pm 18.8 13.8 7.9 49 5.6 WNW 24 39 13 21 1012.5 1012.5 0.0
27/03:00pm 19.4 15.6 9.0 51 5.5 WNW 19 28 10 15 1012.2 1012.2 0.0
27/02:30pm 19.1 15.6 8.7 51 5.4 WNW 17 26 9 14 1012.2 1012.2 0.0
27/02:00pm 20.0 17.7 10.4 54 5.2 NW 13 20 7 11 1012.3 1012.3 0.0
27/01:30pm 19.0 16.1 9.8 55 4.9 NW 15 26 8 14 1012.5 1012.5 0.0
27/01:00pm 19.0 14.9 10.0 56 4.8 NW 22 33 12 18 1012.8 1012.8 0.0
27/12:30pm 18.6 14.9 10.2 58 4.5 WNW 20 30 11 16 1013.3 1013.3 0.0
27/12:00pm 18.8 14.7 10.1 57 4.6 WNW 22 32 12 17 1013.6 1013.6 0.0
27/11:30am 18.7 15.0 10.0 57 4.6 NW 20 26 11 14 1014.1 1014.1 0.0
27/11:00am 18.4 14.7 10.0 58 4.5 NNW 20 33 11 18 1014.7 1014.7 0.0
27/10:30am 17.3 13.2 10.2 63 3.8 NW 22 33 12 18 1015.3 1015.3 0.0
27/10:00am 17.4 14.2 11.2 67 3.3 NNW 19 30 10 16 1015.7 1015.7 0.0
27/09:30am 16.3 13.3 10.6 69 3.0 NW 17 26 9 14 1015.9 1015.9 0.0
27/09:00am 16.4 13.4 10.7 69 3.0 NW 17 22 9 12 1015.9 1015.9 0.0
27/08:30am 15.9 12.9 10.7 71 2.8 WNW 17 24 9 13 1015.9 1015.9 0.0
27/08:00am 15.5 13.4 11.1 75 2.3 NW 13 22 7 12 1015.9 1015.9 0.0
27/07:30am 15.2 12.2 10.8 75 2.3 NW 17 26 9 14 1015.8 1015.8 0.0
27/07:00am 14.4 12.2 10.8 79 1.9 NW 13 20 7 11 1015.6 1015.6 0.0
27/06:30am 14.9 12.3 10.7 76 2.2 WNW 15 20 8 11 1015.5 1015.5 0.0
27/06:00am 14.8 13.0 10.8 77 2.1 NW 11 15 6 8 1015.1 1015.1 0.0
27/05:30am 14.6 13.2 10.8 78 2.0 W 9 13 5 7 1015.0 1015.0 0.0
27/05:00am 15.2 13.3 10.4 73 2.5 WNW 11 19 6 10 1014.7 1014.7 0.0
27/04:30am 15.2 12.5 10.4 73 2.5 NW 15 19 8 10 1014.9 1014.9 0.0
27/04:00am 14.2 12.9 10.0 76 2.2 NW 7 11 4 6 1014.7 1014.7 0.0
27/03:30am 14.5 13.1 9.7 73 2.5 NNW 7 9 4 5 1014.3 1014.3 0.0
27/03:00am 13.6 12.0 10.2 80 1.8 NW 9 11 5 6 1015.0 1015.0 0.0
27/02:30am 13.5 12.2 9.9 79 1.9 WNW 7 9 4 5 1014.9 1014.9 0.0
27/02:00am 13.7 12.0 9.7 77 2.1 NW 9 11 5 6 1014.9 1014.9 0.0
27/01:30am 14.2 12.8 9.4 73 2.5 NW 7 11 4 6 1015.1 1015.1 0.0
27/01:00am 13.8 12.0 9.5 75 2.2 WNW 9 11 5 6 1015.8 1015.8 0.0
27/12:30am 12.8 11.0 9.6 81 1.6 WNW 9 13 5 7 1016.3 1016.3 0.0
27/12:00am 11.9 10.7 9.6 86 1.2 WSW 6 6 3 3 1016.7 1016.7 0.0
 
Date/Time
EST
Temp
°C
App
Temp
°C
Dew
Point
°C
Rel
Hum
%
Delta-T
°C
Wind Press
QNH
hPa
Press
MSL
hPa
Rain since
9am
mm
Dir  Spd
km/h
Gust
km/h
Spd
kts
Gust
kts
26/11:30pm 11.9 10.7 9.5 85 1.2 SW 6 11 3 6 1017.3 1017.3 0.0
26/11:00pm 12.2 11.1 9.8 85 1.2 SW 6 7 3 4 1017.0 1017.0 0.0
26/10:30pm 12.3 11.8 9.3 82 1.5 SW 2 6 1 3 1017.5 1017.5 0.0
26/10:00pm 12.2 11.0 9.4 83 1.4 SW 6 7 3 4 1017.7 1017.7 0.0
26/09:30pm 12.4 12.3 9.6 83 1.4 CALM 0 0 0 0 1017.6 1017.6 0.0
26/09:00pm 12.4 11.9 9.4 82 1.5 WSW 2 7 1 4 1017.9 1017.9 0.0
26/08:30pm 12.8 12.7 9.4 80 1.7 CALM 0 0 0 0 1017.8 1017.8 0.0
26/08:00pm 12.7 11.4 9.3 80 1.7 SW 6 7 3 4 1018.6 1018.6 0.0
26/07:30pm 12.9 11.2 9.9 82 1.5 WSW 9 11 5 6 1018.6 1018.6 0.0
26/07:00pm 13.0 11.5 9.1 77 2.0 W 7 9 4 5 1018.2 1018.2 0.0
26/06:30pm 14.2 12.6 8.6 69 2.8 WNW 7 9 4 5 1018.3 1018.3 0.0
26/06:00pm 15.8 13.1 7.3 57 4.2 N 11 15 6 8 1017.7 1017.7 0.0
26/05:30pm 15.5 12.4 7.3 58 4.1 N 13 17 7 9 1017.4 1017.4 0.0
26/05:00pm 15.3 12.5 6.8 57 4.1 N 11 15 6 8 1017.2 1017.2 0.0
26/04:30pm 16.0 13.1 6.4 53 4.7 NNE 11 13 6 7 1017.2 1017.2 0.0
26/04:00pm 16.4 13.1 6.2 51 5.0 N 13 17 7 9 1017.6 1017.6 0.0
26/03:30pm 16.4 12.6 6.0 50 5.0 NNE 15 17 8 9 1017.1 1017.1 0.0
26/03:00pm 16.7 13.2 5.6 48 5.3 N 13 17 7 9 1017.5 1017.5 0.0
26/02:30pm 16.9 13.3 4.9 45 5.7 N 13 15 7 8 1017.8 1017.8 0.0
26/02:00pm 17.1 13.8 4.4 43 6.0 N 11 15 6 8 1017.8 1017.8 0.0

Other Formats:

Comma delimited format used in spreadsheet applications
http://www.bom.gov.au/fwo/IDN60801/IDN60801.94592.axf

JavaScript Object Notation format (JSON) in row-major order
http://www.bom.gov.au/fwo/IDN60801/IDN60801.94592.json